Time;durP1;ratioP1;P1;durP2;ratioP2;P2;SDS_P1;SDS_P2;PMS_P1;PMS_P2;Temp;Humidity;BMP_temperature;BMP_pressure;BME280_temperature;BME280_humidity;BME280_pressure;Samples;Min_cycle;Max_cycle;Signal;HPM_P1;HPM_P2
2023/05/04 00:00:37;;;;;;;4.65;4.07;;;;;;;6.68;79.41;102092.69;4983476;28;20197;-71
2023/05/04 00:03:09;;;;;;;4.25;3.85;;;;;;;6.70;80.07;102096.91;4987424;28;20800;-71
2023/05/04 00:05:40;;;;;;;8.18;4.22;;;;;;;6.57;80.53;102090.16;4990718;28;20386;-72
2023/05/04 00:08:09;;;;;;;5.22;3.70;;;;;;;6.66;80.71;102089.28;4991899;28;20271;-70
2023/05/04 00:10:38;;;;;;;6.00;4.55;;;;;;;6.65;81.07;102087.56;4992607;28;20208;-73
2023/05/04 00:13:08;;;;;;;6.35;4.10;;;;;;;6.63;81.10;102090.44;4989338;28;20198;-70
2023/05/04 00:15:37;;;;;;;7.13;4.45;;;;;;;6.61;81.14;102091.56;4991084;28;20679;-71
2023/05/04 00:18:08;;;;;;;10.10;4.10;;;;;;;6.63;81.01;102081.50;4984652;28;20256;-71
2023/05/04 00:20:37;;;;;;;5.55;4.15;;;;;;;6.65;81.38;102091.13;4986179;28;20238;-71
2023/05/04 00:23:07;;;;;;;7.88;4.82;;;;;;;6.61;81.39;102081.66;4986685;28;20274;-70
2023/05/04 00:25:37;;;;;;;11.63;4.05;;;;;;;6.60;81.57;102084.47;4980593;28;20195;-71
2023/05/04 00:28:06;;;;;;;5.53;3.83;;;;;;;6.59;81.65;102074.72;4990726;28;20197;-70
2023/05/04 00:30:35;;;;;;;7.38;4.32;;;;;;;6.54;81.90;102078.69;4983904;28;20209;-71
2023/05/04 00:33:04;;;;;;;10.68;5.15;;;;;;;6.50;82.31;102076.44;4987403;28;20208;-70
2023/05/04 00:35:34;;;;;;;7.45;4.68;;;;;;;6.47;82.59;102082.97;4984175;28;20601;-73
2023/05/04 00:38:05;;;;;;;9.07;4.13;;;;;;;6.38;82.92;102075.81;4982521;28;20209;-71
2023/05/04 00:40:35;;;;;;;13.23;5.35;;;;;;;6.40;83.50;102068.41;4990085;28;20190;-71
2023/05/04 00:43:04;;;;;;;6.78;3.92;;;;;;;6.34;83.38;102071.69;4993379;28;20206;-71
2023/05/04 00:45:33;;;;;;;7.80;4.22;;;;;;;6.38;83.53;102072.25;4986751;28;20293;-72
2023/05/04 00:48:03;;;;;;;7.60;3.95;;;;;;;6.25;84.05;102071.72;4985671;28;20286;-71
2023/05/04 00:50:32;;;;;;;12.70;4.15;;;;;;;6.21;84.35;102073.00;4987399;28;20220;-72
2023/05/04 00:53:08;;;;;;;10.98;4.47;;;;;;;6.15;84.86;102071.72;4987150;28;20196;-69
2023/05/04 00:55:39;;;;;;;8.75;4.68;;;;;;;6.01;85.76;102073.03;4979470;28;20197;-70
2023/05/04 00:58:09;;;;;;;8.18;4.10;;;;;;;6.09;86.01;102072.34;4994322;28;20205;-72
2023/05/04 01:00:38;;;;;;;11.75;4.80;;;;;;;6.17;85.07;102063.53;4988018;28;20190;-70
2023/05/04 01:03:09;;;;;;;8.35;5.05;;;;;;;6.09;85.71;102067.81;4988442;28;20195;-70
2023/05/04 01:05:47;;;;;;;5.85;2.65;;;;;;;5.93;86.23;102066.69;4979946;28;20188;-72
2023/05/04 01:08:21;;;;;;;4.35;3.53;;;;;;;5.86;87.09;102065.53;4986242;28;20205;-71
2023/05/04 01:10:56;;;;;;;10.60;4.00;;;;;;;5.80;87.64;102066.13;4986773;28;20205;-71
2023/05/04 01:13:27;;;;;;;11.00;4.85;;;;;;;5.82;87.79;102064.13;4984534;28;20599;-71
2023/05/04 01:15:56;;;;;;;7.53;3.97;;;;;;;5.80;87.60;102060.75;4983259;28;20296;-72
2023/05/04 01:18:25;;;;;;;4.15;3.75;;;;;;;5.79;87.91;102049.16;4984197;28;20202;-71
2023/05/04 01:20:54;;;;;;;10.10;4.68;;;;;;;5.91;87.10;102052.53;4988091;28;20670;-72
2023/05/04 01:23:26;;;;;;;9.32;4.55;;;;;;;5.94;87.37;102060.34;4980125;28;20321;-70
2023/05/04 01:26:01;;;;;;;7.63;3.65;;;;;;;5.92;87.52;102059.63;4981620;28;20216;-72
2023/05/04 01:28:39;;;;;;;10.63;4.32;;;;;;;5.97;87.06;102060.03;4983745;28;20668;-72
2023/05/04 01:31:11;;;;;;;10.55;5.60;;;;;;;5.96;86.93;102061.03;4989583;28;20567;-70
2023/05/04 01:33:41;;;;;;;10.13;4.75;;;;;;;5.85;87.72;102058.47;4982838;28;20598;-72
2023/05/04 01:36:10;;;;;;;9.35;4.13;;;;;;;5.67;88.21;102056.50;4982255;28;20194;-71
2023/05/04 01:38:42;;;;;;;5.40;4.30;;;;;;;5.62;88.92;102064.13;4985948;28;20284;-72
2023/05/04 01:41:11;;;;;;;5.80;4.60;;;;;;;5.64;89.08;102053.25;4983723;28;20229;-72
2023/05/04 01:43:41;;;;;;;7.90;4.90;;;;;;;5.67;89.04;102055.66;4997740;28;20225;-71
2023/05/04 01:46:10;;;;;;;8.48;4.35;;;;;;;5.66;89.21;102049.41;4983203;28;20387;-72
2023/05/04 01:48:39;;;;;;;8.65;4.45;;;;;;;5.64;89.07;102045.19;4988452;28;20352;-72
2023/05/04 01:51:08;;;;;;;6.13;3.90;;;;;;;5.60;88.55;102044.66;4993946;28;20638;-72
2023/05/04 01:53:37;;;;;;;6.63;4.00;;;;;;;5.52;89.61;102052.53;4991451;28;20243;-72
2023/05/04 01:56:08;;;;;;;6.68;4.47;;;;;;;5.54;89.42;102055.09;5002120;28;20201;-72
2023/05/04 01:58:37;;;;;;;6.28;3.75;;;;;;;5.56;89.68;102045.94;4988668;28;20199;-72
2023/05/04 02:01:06;;;;;;;17.40;3.90;;;;;;;5.53;88.95;102048.88;4986974;28;20205;-72
2023/05/04 02:03:36;;;;;;;7.15;4.28;;;;;;;5.58;89.04;102048.44;4983049;28;20222;-72
2023/05/04 02:06:05;;;;;;;9.93;4.60;;;;;;;5.60;88.72;102044.66;4990252;28;20634;-72
2023/05/04 02:08:34;;;;;;;15.30;4.53;;;;;;;5.54;88.71;102045.19;4983425;28;20639;-71
2023/05/04 02:11:03;;;;;;;8.38;3.85;;;;;;;5.53;88.58;102043.50;4989032;28;20312;-72
2023/05/04 02:13:33;;;;;;;10.95;3.40;;;;;;;5.49;88.56;102044.78;4983458;28;20221;-72
2023/05/04 02:16:02;;;;;;;7.88;3.63;;;;;;;5.48;88.92;102045.75;4989643;28;20212;-72
2023/05/04 02:18:31;;;;;;;16.17;4.28;;;;;;;5.54;88.59;102042.53;4978643;28;20194;-72
2023/05/04 02:21:00;;;;;;;12.30;6.22;;;;;;;5.56;88.45;102043.25;4987877;28;20217;-72
2023/05/04 02:23:29;;;;;;;6.75;3.90;;;;;;;5.65;87.46;102047.75;4981882;28;20880;-71
2023/05/04 02:25:59;;;;;;;19.60;4.72;;;;;;;5.55;87.43;102046.91;4986772;28;20439;-71
2023/05/04 02:28:28;;;;;;;8.63;3.70;;;;;;;5.62;87.44;102047.16;4987325;28;20236;-72
2023/05/04 02:30:59;;;;;;;9.15;3.70;;;;;;;5.66;86.90;102051.28;4983070;28;20574;-72
2023/05/04 02:33:28;;;;;;;9.35;4.13;;;;;;;5.68;86.72;102047.47;4990184;28;20662;-72
2023/05/04 02:35:56;;;;;;;11.48;4.35;;;;;;;5.72;86.46;102047.16;4982379;28;20209;-71
2023/05/04 02:38:26;;;;;;;10.55;4.80;;;;;;;5.76;85.94;102051.28;4987657;28;20601;-72
2023/05/04 02:40:57;;;;;;;7.50;3.80;;;;;;;5.70;85.70;102050.00;4989811;28;20197;-71
2023/05/04 02:43:26;;;;;;;6.38;3.08;;;;;;;5.71;85.91;102050.88;4999417;28;20220;-71
2023/05/04 02:45:55;;;;;;;5.40;3.83;;;;;;;5.62;85.84;102058.75;4993240;28;20197;-71
2023/05/04 02:48:25;;;;;;;8.18;3.80;;;;;;;5.61;85.99;102046.34;4994294;28;20602;-70
2023/05/04 02:50:55;;;;;;;5.45;4.10;;;;;;;5.61;85.80;102046.34;4995896;28;20319;-73
2023/05/04 02:53:24;;;;;;;8.95;4.45;;;;;;;5.53;86.12;102048.88;5005519;28;20222;-72
2023/05/04 02:55:53;;;;;;;12.23;4.50;;;;;;;5.44;86.98;102052.41;4992934;28;20190;-71
2023/05/04 02:58:22;;;;;;;7.78;4.07;;;;;;;5.39;86.92;102051.97;4994777;28;20209;-72
2023/05/04 03:00:55;;;;;;;13.82;5.72;;;;;;;5.33;87.23;102043.63;4999842;28;20571;-72
2023/05/04 03:03:25;;;;;;;9.23;4.50;;;;;;;5.27;87.55;102034.31;5004017;28;20226;-69
2023/05/04 03:05:54;;;;;;;11.63;5.45;;;;;;;5.13;88.44;102035.56;5000176;28;20291;-72
2023/05/04 03:08:23;;;;;;;5.10;4.60;;;;;;;5.10;88.52;102037.69;4993157;28;20200;-71
2023/05/04 03:10:52;;;;;;;9.98;3.90;;;;;;;5.14;88.56;102031.03;4999684;28;20251;-72
2023/05/04 03:13:21;;;;;;;4.90;3.63;;;;;;;5.19;88.40;102029.63;4987985;28;20706;-72
2023/05/04 03:15:51;;;;;;;13.73;4.07;;;;;;;5.15;88.07;102032.75;4997132;28;20190;-71
2023/05/04 03:18:20;;;;;;;10.07;4.30;;;;;;;5.22;88.18;102032.06;4997632;28;20661;-73
2023/05/04 03:20:53;;;;;;;8.93;4.35;;;;;;;5.33;87.58;102030.22;4994364;28;20197;-72
2023/05/04 03:23:23;;;;;;;10.40;3.92;;;;;;;5.34;86.91;102030.06;5001910;28;20227;-71
2023/05/04 03:25:52;;;;;;;6.13;3.30;;;;;;;5.37;86.60;102028.97;5000482;28;20194;-72
2023/05/04 03:28:21;;;;;;;5.43;3.75;;;;;;;5.36;86.67;102032.63;5004073;28;20298;-72
2023/05/04 03:30:50;;;;;;;9.27;3.38;;;;;;;5.53;85.69;102039.97;5001864;28;20216;-73
2023/05/04 03:33:21;;;;;;;12.48;4.55;;;;;;;5.46;85.55;102031.66;5022097;28;20625;-72
2023/05/04 03:35:50;;;;;;;8.57;3.75;;;;;;;5.51;85.77;102032.06;4995451;28;20252;-72
2023/05/04 03:38:20;;;;;;;9.90;4.20;;;;;;;5.46;86.24;102038.84;4996227;28;20232;-73
2023/05/04 03:40:49;;;;;;;5.45;3.75;;;;;;;5.49;85.98;102030.50;5005414;28;20400;-72
2023/05/04 03:43:18;;;;;;;6.22;3.15;;;;;;;5.47;85.83;102025.25;4998402;28;20206;-72
2023/05/04 03:45:47;;;;;;;8.40;4.65;;;;;;;5.59;85.96;102026.84;4997603;28;20213;-71
2023/05/04 03:48:18;;;;;;;9.10;4.15;;;;;;;6.02;83.95;102018.31;5001461;28;20206;-72
2023/05/04 03:50:47;;;;;;;8.40;3.70;;;;;;;6.33;82.01;102021.63;4984660;28;20659;-71
2023/05/04 03:53:16;;;;;;;5.25;3.90;;;;;;;6.75;80.09;102026.50;4984998;28;20194;-71
2023/05/04 03:55:46;;;;;;;15.80;4.75;;;;;;;7.22;77.59;102029.88;4992244;28;20193;-71
2023/05/04 03:58:15;;;;;;;5.00;3.28;;;;;;;7.28;75.86;102019.38;4997145;28;20212;-72
2023/05/04 04:00:44;;;;;;;3.97;2.80;;;;;;;7.03;76.44;102025.47;4989451;28;20196;-72
2023/05/04 04:03:16;;;;;;;7.55;4.15;;;;;;;6.96;77.85;102019.03;4992566;28;20221;-73
2023/05/04 04:05:45;;;;;;;8.82;4.32;;;;;;;7.89;74.11;102013.13;5000128;28;20279;-72
2023/05/04 04:08:14;;;;;;;6.20;3.55;;;;;;;8.77;70.05;102019.19;4989220;28;20567;-72
2023/05/04 04:10:45;;;;;;;5.50;4.20;;;;;;;9.56;66.98;102022.25;4994528;28;20256;-72
2023/05/04 04:13:14;;;;;;;6.90;3.55;;;;;;;10.03;64.38;102025.94;4989270;28;20206;-72
2023/05/04 04:15:44;;;;;;;10.20;3.75;;;;;;;10.44;62.02;102024.03;4982865;28;20675;-72
2023/05/04 04:18:13;;;;;;;8.52;4.50;;;;;;;10.97;60.45;102024.31;4991809;28;20283;-72
2023/05/04 04:20:42;;;;;;;9.25;4.95;;;;;;;11.31;58.81;102016.66;4990194;28;20696;-71
2023/05/04 04:23:11;;;;;;;9.40;4.10;;;;;;;11.81;57.46;102018.00;4983326;28;20278;-71
2023/05/04 04:25:40;;;;;;;11.18;4.60;;;;;;;11.98;55.81;102014.94;4985568;28;20187;-71
2023/05/04 04:28:14;;;;;;;10.05;4.57;;;;;;;11.79;56.30;102020.88;4981551;28;20208;-71
2023/05/04 04:30:43;;;;;;;9.15;4.18;;;;;;;12.31;54.95;102020.88;4984907;28;20215;-71
2023/05/04 04:33:11;;;;;;;6.97;3.70;;;;;;;12.50;54.38;102014.03;4985139;28;20221;-71
2023/05/04 04:35:41;;;;;;;6.78;4.03;;;;;;;12.83;52.98;102020.75;4984233;28;20186;-72
2023/05/04 04:38:10;;;;;;;7.73;4.07;;;;;;;13.14;51.77;102023.25;4981523;28;20612;-73
2023/05/04 04:40:39;;;;;;;5.63;4.00;;;;;;;13.54;50.75;102019.09;4990645;28;20800;-72
2023/05/04 04:43:08;;;;;;;8.87;4.77;;;;;;;13.06;51.46;102021.47;4988326;28;20408;-70
2023/05/04 04:45:40;;;;;;;8.37;3.90;;;;;;;13.51;50.09;102029.53;4989552;28;20499;-71
2023/05/04 04:48:10;;;;;;;11.50;4.13;;;;;;;13.37;50.55;102023.94;4988779;28;20414;-71
2023/05/04 04:50:39;;;;;;;6.20;4.27;;;;;;;13.11;50.63;102023.66;4982611;28;20500;-71
2023/05/04 04:53:08;;;;;;;7.87;3.57;;;;;;;13.16;51.19;102026.63;4984734;28;20946;-71
2023/05/04 04:55:38;;;;;;;6.37;3.50;;;;;;;13.39;50.47;102021.88;4988041;28;20537;-72
2023/05/04 04:58:07;;;;;;;6.17;3.60;;;;;;;13.33;50.40;102017.19;4988868;28;20428;-70
2023/05/04 05:00:38;;;;;;;10.50;3.87;;;;;;;13.75;49.60;102026.38;4983452;28;20532;-71
2023/05/04 05:03:07;;;;;;;5.43;3.63;;;;;;;14.30;48.27;102026.41;4979383;28;20970;-71
2023/05/04 05:05:36;;;;;;;6.30;3.50;;;;;;;14.92;46.62;102019.22;4986266;28;20488;-70
2023/05/04 05:08:05;;;;;;;14.73;4.00;;;;;;;15.00;46.37;102019.91;4979071;28;20413;-71
2023/05/04 05:10:34;;;;;;;5.77;4.23;;;;;;;15.16;45.94;102019.53;4982099;28;20404;-70
2023/05/04 05:13:03;;;;;;;13.90;3.60;;;;;;;15.18;45.33;102019.31;4981596;28;20443;-70
2023/05/04 05:15:32;;;;;;;7.80;3.47;;;;;;;15.45;45.08;102012.03;4992073;28;20404;-71
2023/05/04 05:18:03;;;;;;;11.63;4.60;;;;;;;15.51;44.69;102012.09;4991892;28;20430;-71
2023/05/04 05:20:33;;;;;;;7.73;3.97;;;;;;;13.48;48.71;102009.84;4987675;28;20413;-71
2023/05/04 05:23:02;;;;;;;7.30;3.73;;;;;;;11.41;54.60;102011.00;4991863;28;20437;-72
2023/05/04 05:25:31;;;;;;;13.60;5.00;;;;;;;10.45;58.74;102016.75;4990167;28;20426;-70
2023/05/04 05:28:00;;;;;;;12.40;4.20;;;;;;;9.90;61.67;102014.81;4991644;28;20494;-71
2023/05/04 05:30:29;;;;;;;13.83;4.67;;;;;;;9.77;61.87;102019.91;4994202;28;20467;-71
2023/05/04 05:32:58;;;;;;;13.07;4.63;;;;;;;9.60;62.79;102008.22;4993295;28;20480;-71
2023/05/04 05:35:29;;;;;;;6.80;4.88;;;;;;;9.61;63.31;102019.88;4991386;28;20214;-70
2023/05/04 05:37:58;;;;;;;5.20;3.60;;;;;;;9.69;63.33;102011.78;4986376;28;20201;-70
2023/05/04 05:40:27;;;;;;;8.15;4.40;;;;;;;9.71;63.13;102015.16;4991755;28;20256;-72
2023/05/04 05:42:57;;;;;;;9.13;4.93;;;;;;;9.66;64.40;102019.38;4992356;28;20200;-72
2023/05/04 05:45:26;;;;;;;12.10;5.13;;;;;;;9.82;62.21;102016.69;4982513;28;20225;-71
2023/05/04 05:47:55;;;;;;;7.95;4.38;;;;;;;9.82;62.85;102012.13;5387820;23;20192;-72
2023/05/04 05:50:25;;;;;;;12.20;5.38;;;;;;;9.87;62.63;101998.94;4981509;28;20617;-73
2023/05/04 05:52:55;;;;;;;11.65;5.45;;;;;;;9.90;62.64;102001.28;4989330;28;20388;-73
2023/05/04 05:55:24;;;;;;;10.55;5.10;;;;;;;10.09;62.23;101999.22;4961948;28;20715;-73
2023/05/04 05:57:53;;;;;;;8.65;5.18;;;;;;;10.22;61.97;102007.66;4957358;28;20287;-71
2023/05/04 06:00:23;;;;;;;15.77;5.57;;;;;;;10.35;61.23;102008.00;4969242;28;20213;-71
2023/05/04 06:02:54;;;;;;;9.93;4.80;;;;;;;10.50;60.55;102014.38;4960862;28;20206;-73
2023/05/04 06:05:26;;;;;;;10.10;5.20;;;;;;;10.68;59.44;102014.97;4965971;28;20213;-73
2023/05/04 06:07:56;;;;;;;13.23;5.07;;;;;;;10.78;59.70;102014.75;4972281;28;20507;-73
2023/05/04 06:10:25;;;;;;;8.00;4.30;;;;;;;10.81;59.49;102009.84;4970238;28;20438;-73
2023/05/04 06:12:54;;;;;;;11.27;5.10;;;;;;;10.62;59.45;102004.00;4972831;28;20441;-74
2023/05/04 06:15:23;;;;;;;6.27;4.80;;;;;;;10.94;58.85;102003.00;4973232;28;20461;-70
2023/05/04 06:17:52;;;;;;;9.70;4.70;;;;;;;11.10;57.84;102005.59;4976556;28;20497;-72
2023/05/04 06:20:23;;;;;;;9.47;5.03;;;;;;;11.22;57.65;102009.59;4977989;28;20499;-70
2023/05/04 06:22:52;;;;;;;11.70;4.20;;;;;;;11.43;57.14;102015.19;4975660;28;20430;-72
2023/05/04 06:25:22;;;;;;;9.67;5.07;;;;;;;11.59;56.60;102015.09;4969952;28;21022;-71
2023/05/04 06:27:51;;;;;;;9.90;7.10;;;;;;;11.77;55.60;102018.34;4978964;28;20462;-72
2023/05/04 06:30:23;;;;;;;15.30;11.30;;;;;;;11.69;55.49;102007.56;4970974;28;20443;-71
2023/05/04 06:32:52;;;;;;;11.13;6.93;;;;;;;11.84;55.61;102012.19;4965473;28;20501;-72
2023/05/04 06:35:21;;;;;;;9.37;5.23;;;;;;;11.83;54.58;102007.78;4966976;28;20547;-72
2023/05/04 06:37:50;;;;;;;11.67;5.53;;;;;;;12.09;54.14;102005.53;4971784;28;20439;-71
2023/05/04 06:40:26;;;;;;;12.17;7.40;;;;;;;12.19;54.30;102003.38;4975735;28;20812;-70
2023/05/04 06:42:55;;;;;;;11.07;5.77;;;;;;;12.19;54.27;102009.66;4970319;28;20404;-69
2023/05/04 06:45:24;;;;;;;7.07;5.30;;;;;;;12.30;53.53;102013.75;4967051;28;20809;-70
2023/05/04 06:47:53;;;;;;;7.47;5.03;;;;;;;12.64;53.26;102007.75;4975729;28;20904;-71
2023/05/04 06:50:22;;;;;;;7.30;5.33;;;;;;;12.64;52.94;102011.31;4975762;28;20480;-72
2023/05/04 06:52:51;;;;;;;13.03;4.87;;;;;;;12.69;52.39;102010.75;4968871;28;20471;-71
2023/05/04 06:55:22;;;;;;;13.47;4.97;;;;;;;12.93;51.78;102009.59;4967247;28;20469;-72
2023/05/04 06:57:53;;;;;;;14.40;5.27;;;;;;;12.97;51.35;102013.63;4965202;28;20439;-73
2023/05/04 07:00:22;;;;;;;9.33;4.73;;;;;;;12.98;50.45;102016.13;4967611;28;20847;-71
2023/05/04 07:03:17;;;;;;;6.53;4.03;;;;;;;13.04;50.66;102011.81;4965784;28;20431;-73
2023/05/04 07:05:47;;;;;;;13.57;5.00;;;;;;;13.13;51.54;102018.00;4969651;28;20831;-73
2023/05/04 07:08:16;;;;;;;6.13;4.50;;;;;;;13.29;50.22;102015.06;4970011;28;20895;-71
2023/05/04 07:10:45;;;;;;;7.10;4.57;;;;;;;13.38;50.52;102012.03;4965845;28;20439;-71
2023/05/04 07:13:16;;;;;;;10.50;7.27;;;;;;;13.56;50.07;102002.56;4961772;28;20818;-72
2023/05/04 07:15:45;;;;;;;12.33;4.90;;;;;;;13.79;48.93;102008.66;4967475;28;20420;-72
2023/05/04 07:18:14;;;;;;;12.73;5.10;;;;;;;13.83;49.03;102010.78;4973164;28;20929;-73
2023/05/04 07:20:45;;;;;;;8.07;5.07;;;;;;;13.83;48.50;102007.22;4961556;28;20439;-71
2023/05/04 07:23:14;;;;;;;8.50;4.77;;;;;;;14.14;48.07;101998.63;4964040;28;20407;-72
2023/05/04 07:25:43;;;;;;;14.50;5.17;;;;;;;14.39;47.52;101996.31;4970012;28;21089;-69
2023/05/04 07:28:17;;;;;;;8.67;4.70;;;;;;;14.39;46.93;102004.50;4974080;28;20469;-71
2023/05/04 07:30:45;;;;;;;9.93;3.77;;;;;;;14.45;46.77;101998.25;4969916;28;20407;-73
2023/05/04 07:33:15;;;;;;;7.80;4.07;;;;;;;14.44;45.88;101991.13;4976016;28;20437;-72
2023/05/04 07:35:44;;;;;;;5.33;4.83;;;;;;;14.62;45.86;101986.81;4967934;28;20431;-71
2023/05/04 07:38:13;;;;;;;11.80;5.30;;;;;;;14.33;46.66;101982.44;4971787;28;20960;-72
2023/05/04 07:40:44;;;;;;;10.03;4.83;;;;;;;14.44;46.84;101991.13;4973532;28;20482;-72
2023/05/04 07:43:39;;;;;;;9.93;5.40;;;;;;;14.75;45.48;101981.44;4972837;28;20970;-71
2023/05/04 07:46:09;;;;;;;7.20;5.17;;;;;;;14.84;44.53;101983.97;4971168;28;20440;-71
2023/05/04 07:48:38;;;;;;;9.17;4.60;;;;;;;14.88;44.42;101977.91;4977349;28;20454;-71
2023/05/04 07:51:11;;;;;;;9.77;4.53;;;;;;;15.15;44.53;101987.84;4969036;28;20473;-72
2023/05/04 07:53:41;;;;;;;6.80;4.77;;;;;;;15.21;43.94;101988.91;4964981;28;20812;-72
2023/05/04 07:56:12;;;;;;;7.53;3.90;;;;;;;15.27;43.51;101984.53;4969802;28;20414;-73
2023/05/04 07:58:42;;;;;;;7.77;4.70;;;;;;;15.29;43.30;101972.38;4970689;28;20996;-72
2023/05/04 08:01:11;;;;;;;6.90;5.10;;;;;;;15.29;42.49;101977.00;4973988;28;20423;-72
2023/05/04 08:03:41;;;;;;;12.80;4.60;;;;;;;15.44;43.08;101974.91;4972295;28;20518;-71
2023/05/04 08:06:10;;;;;;;6.93;4.50;;;;;;;15.79;42.67;101973.69;4974418;28;20439;-72
2023/05/04 08:08:38;;;;;;;6.50;3.90;;;;;;;15.99;42.23;101974.50;4973633;28;20472;-72
2023/05/04 08:11:10;;;;;;;6.07;4.37;;;;;;;16.15;40.94;101973.25;4975184;28;20453;-71
2023/05/04 08:13:51;;;;;;;12.40;4.50;;;;;;;16.32;40.49;101968.97;4975380;28;20450;-71
2023/05/04 08:16:20;;;;;;;8.67;3.97;;;;;;;16.22;40.92;101967.75;4974362;28;20429;-71
2023/05/04 08:18:49;;;;;;;13.43;4.13;;;;;;;16.13;40.76;101963.56;4977002;28;20404;-73
2023/05/04 08:21:18;;;;;;;7.27;5.07;;;;;;;16.21;40.65;101969.66;4977991;28;20857;-71
2023/05/04 08:23:47;;;;;;;5.57;4.23;;;;;;;16.14;40.44;101965.25;4976916;28;20424;-72
2023/05/04 08:26:16;;;;;;;7.80;3.90;;;;;;;16.29;40.59;101968.59;4974002;28;20411;-72
2023/05/04 08:28:45;;;;;;;6.67;3.27;;;;;;;16.51;40.01;101973.56;4972968;28;20831;-73
2023/05/04 08:31:17;;;;;;;5.60;4.33;;;;;;;16.88;39.72;101958.31;4973752;28;20406;-70
2023/05/04 08:33:46;;;;;;;5.53;3.87;;;;;;;17.00;38.94;101963.91;4974159;28;20576;-72
2023/05/04 08:36:15;;;;;;;6.30;3.63;;;;;;;16.90;38.57;101964.38;4970460;28;20965;-73
2023/05/04 08:38:44;;;;;;;9.40;4.10;;;;;;;16.91;38.68;101963.31;4966235;28;20412;-71
2023/05/04 08:41:13;;;;;;;5.90;3.90;;;;;;;16.90;37.21;101966.28;4967656;28;21377;-73
2023/05/04 08:43:44;;;;;;;6.40;3.80;;;;;;;16.80;38.41;101961.28;4967305;28;21289;-73
2023/05/04 08:46:15;;;;;;;6.50;4.90;;;;;;;17.18;37.72;101947.63;4967547;28;20426;-73
2023/05/04 08:48:45;;;;;;;7.27;3.60;;;;;;;16.86;37.65;101945.91;4963691;28;21508;-72
2023/05/04 08:51:15;;;;;;;7.63;3.60;;;;;;;16.74;37.85;101945.75;4966700;28;20533;-71
2023/05/04 08:53:46;;;;;;;7.60;3.90;;;;;;;16.98;37.51;101946.06;4965938;28;20833;-72
2023/05/04 08:56:16;;;;;;;10.63;4.40;;;;;;;17.27;38.37;101942.72;4966362;28;20458;-72
2023/05/04 08:58:50;;;;;;;5.20;3.80;;;;;;;17.44;36.07;101935.63;4971340;28;20503;-70
2023/05/04 09:01:22;;;;;;;4.30;3.80;;;;;;;17.52;36.34;101946.31;4975408;28;20425;-72
2023/05/04 09:03:51;;;;;;;10.23;4.27;;;;;;;17.52;37.58;101943.59;4968914;28;20868;-71
2023/05/04 09:06:21;;;;;;;5.87;4.13;;;;;;;17.59;36.80;101943.53;4967529;28;20447;-72
2023/05/04 09:08:50;;;;;;;7.00;4.37;;;;;;;17.49;37.26;101949.50;4966902;28;20418;-73
2023/05/04 09:11:20;;;;;;;5.50;4.80;;;;;;;17.59;36.60;101940.81;4968272;28;20424;-71
2023/05/04 09:13:49;;;;;;;9.80;4.17;;;;;;;17.00;37.07;101938.47;4967498;28;20485;-71
2023/05/04 09:16:18;;;;;;;6.50;3.40;;;;;;;17.03;37.73;101941.63;4966318;28;20415;-72
2023/05/04 09:18:49;;;;;;;5.57;4.17;;;;;;;17.25;37.27;101937.47;4967795;28;20449;-70
2023/05/04 09:21:28;;;;;;;9.33;5.13;;;;;;;17.75;37.01;101937.53;4965192;28;20445;-73
2023/05/04 09:23:57;;;;;;;6.50;3.70;;;;;;;17.94;36.42;101943.88;4968264;28;20427;-71
2023/05/04 09:26:31;;;;;;;12.60;4.13;;;;;;;18.14;35.52;101939.88;4967977;28;20402;-71
2023/05/04 09:29:12;;;;;;;8.03;3.50;;;;;;;18.17;35.48;101941.31;4970042;28;20484;-73
2023/05/04 09:31:46;;;;;;;9.43;5.43;;;;;;;17.97;35.00;101941.50;4968131;28;20428;-72
2023/05/04 09:34:17;;;;;;;5.10;2.73;;;;;;;18.19;34.93;101933.72;4967686;28;20482;-72
2023/05/04 09:36:57;;;;;;;5.90;3.67;;;;;;;18.25;34.35;101938.25;4968950;28;20413;-70
2023/05/04 09:39:26;;;;;;;6.30;4.57;;;;;;;18.11;34.40;101936.72;4968898;28;20430;-71
2023/05/04 09:41:55;;;;;;;4.83;3.43;;;;;;;18.24;33.16;101926.50;4966516;28;20796;-73
2023/05/04 09:44:27;;;;;;;5.00;3.60;;;;;;;17.90;33.78;101928.97;4972045;28;20512;-72
2023/05/04 09:46:59;;;;;;;5.00;3.73;;;;;;;17.93;34.05;101925.75;4970791;28;20415;-71
2023/05/04 09:49:33;;;;;;;8.23;4.17;;;;;;;17.97;34.35;101921.50;4967941;28;20469;-72
2023/05/04 09:52:03;;;;;;;4.60;3.80;;;;;;;18.12;34.52;101911.03;4967551;28;20432;-71
2023/05/04 09:54:36;;;;;;;5.23;3.77;;;;;;;18.29;34.63;101911.28;4965568;28;20449;-74
2023/05/04 09:57:12;;;;;;;10.63;4.50;;;;;;;18.43;34.76;101913.63;4967360;28;20912;-73
2023/05/04 09:59:41;;;;;;;6.93;4.73;;;;;;;18.57;35.08;101906.94;4966169;28;20448;-71
2023/05/04 10:02:12;;;;;;;9.57;4.57;;;;;;;18.87;34.89;101906.97;4967056;28;20827;-71
2023/05/04 10:04:54;;;;;;;5.17;3.90;;;;;;;18.80;33.81;101913.59;4965694;28;20452;-72
2023/05/04 10:07:23;;;;;;;5.80;3.80;;;;;;;18.87;34.33;101906.97;4967690;28;20962;-71
2023/05/04 10:09:53;;;;;;;5.17;4.33;;;;;;;18.74;34.57;101903.53;4967564;28;20430;-72
2023/05/04 10:12:23;;;;;;;6.73;4.00;;;;;;;18.69;34.26;101893.25;4965965;28;20533;-73
2023/05/04 10:14:52;;;;;;;5.90;4.60;;;;;;;18.38;34.33;101885.22;4965315;28;20453;-71
2023/05/04 10:17:35;;;;;;;6.67;4.17;;;;;;;18.38;34.22;101875.09;4963625;28;20420;-70
2023/05/04 10:20:19;;;;;;;9.97;4.97;;;;;;;18.24;34.77;101870.84;4964547;28;20448;-72
2023/05/04 10:23:08;;;;;;;6.80;4.57;;;;;;;18.86;33.86;101871.53;4965080;28;20506;-71
2023/05/04 10:25:58;;;;;;;6.43;4.37;;;;;;;18.25;34.04;101867.03;4959328;28;20445;-73
2023/05/04 10:28:41;;;;;;;8.93;5.63;;;;;;;18.02;34.70;101867.72;4965686;28;20415;-72
2023/05/04 10:31:10;;;;;;;10.47;4.80;;;;;;;18.20;34.73;101864.16;4967932;28;20423;-73
2023/05/04 10:33:40;;;;;;;4.37;3.97;;;;;;;18.58;34.00;101861.19;4967382;28;20457;-71
2023/05/04 10:36:11;;;;;;;6.83;3.73;;;;;;;18.77;33.61;101853.72;4962509;28;20927;-72
2023/05/04 10:38:41;;;;;;;11.87;3.70;;;;;;;19.24;33.13;101850.03;4968501;28;20465;-72
2023/05/04 10:41:17;;;;;;;4.10;3.63;;;;;;;19.39;33.20;101844.06;4966637;28;20406;-73
2023/05/04 10:43:49;;;;;;;7.87;5.40;;;;;;;19.60;32.87;101848.19;4968112;28;20448;-72
2023/05/04 10:46:20;;;;;;;9.60;4.47;;;;;;;19.72;33.30;101840.75;4961739;28;20417;-72
2023/05/04 10:48:49;;;;;;;7.27;3.90;;;;;;;19.97;32.61;101835.84;4963094;28;20422;-72
2023/05/04 10:51:21;;;;;;;5.70;4.10;;;;;;;20.10;31.78;101829.22;4970578;28;20402;-72
2023/05/04 10:53:51;;;;;;;9.23;4.00;;;;;;;19.95;31.26;101822.34;4964211;28;20468;-72
2023/05/04 10:56:24;;;;;;;6.87;4.10;;;;;;;19.93;31.10;101831.91;4964462;28;20429;-73
2023/05/04 10:58:54;;;;;;;8.90;3.97;;;;;;;19.71;30.34;101828.94;4962377;28;20536;-72
2023/05/04 11:01:23;;;;;;;6.93;3.97;;;;;;;19.98;30.67;101820.19;4971537;28;20432;-72
2023/05/04 11:03:53;;;;;;;14.50;4.27;;;;;;;19.73;30.63;101820.47;4964679;28;20428;-74
2023/05/04 11:06:25;;;;;;;5.70;4.67;;;;;;;19.09;31.13;101816.72;4972362;28;20413;-72
2023/05/04 11:09:01;;;;;;;7.93;3.60;;;;;;;19.41;31.66;101817.25;4970394;28;20920;-74
2023/05/04 11:11:35;;;;;;;10.70;3.30;;;;;;;19.42;30.52;101808.75;4972366;28;20401;-74
2023/05/04 11:14:04;;;;;;;8.47;4.03;;;;;;;19.24;31.21;101811.59;4969082;28;21035;-73
2023/05/04 11:16:33;;;;;;;5.17;4.43;;;;;;;19.42;30.81;101814.25;4967126;28;20468;-73
2023/05/04 11:19:08;;;;;;;14.90;4.77;;;;;;;19.67;30.27;101814.03;4969464;28;20414;-73
2023/05/04 11:21:40;;;;;;;6.30;3.40;;;;;;;20.00;30.36;101805.13;4966109;28;20421;-73
2023/05/04 11:24:09;;;;;;;3.43;3.03;;;;;;;19.65;29.89;101801.63;4964959;28;20458;-71
2023/05/04 11:26:50;;;;;;;6.17;3.80;;;;;;;19.70;29.95;101799.00;4967968;28;20413;-72
2023/05/04 11:29:19;;;;;;;5.03;3.70;;;;;;;20.00;29.88;101799.63;4970123;28;20414;-73
2023/05/04 11:31:57;;;;;;;5.87;3.83;;;;;;;20.17;30.08;101795.06;4963950;28;20441;-73
2023/05/04 11:34:26;;;;;;;5.33;3.93;;;;;;;20.15;29.99;101791.72;4968673;28;20594;-72
2023/05/04 11:37:00;;;;;;;9.30;4.33;;;;;;;20.27;30.24;101794.44;4973553;28;20842;-74
2023/05/04 11:39:33;;;;;;;4.33;3.93;;;;;;;20.45;30.15;101785.16;4967996;28;20551;-73
2023/05/04 11:42:07;;;;;;;7.13;4.00;;;;;;;20.55;29.26;101785.38;4966890;28;20919;-73